Time;durP1;ratioP1;P1;durP2;ratioP2;P2;SDS_P1;SDS_P2;PMS_P1;PMS_P2;Temp;Humidity;BMP_temperature;BMP_pressure;BME280_temperature;BME280_humidity;BME280_pressure;Samples;Min_cycle;Max_cycle;Signal;HPM_P1;HPM_P2
2023/05/21 00:00:33;;;;;;;5.00;1.90;;;;;;;13.52;100.00;100923.94;105833;1257;68072;-43
2023/05/21 00:03:01;;;;;;;11.40;2.30;;;;;;;13.50;100.00;100929.67;105868;1254;75458;-43
2023/05/21 00:05:28;;;;;;;5.90;1.80;;;;;;;13.49;100.00;100932.48;105810;1254;62286;-43
2023/05/21 00:07:56;;;;;;;8.30;1.60;;;;;;;13.45;100.00;100929.95;105753;1258;61549;-43
2023/05/21 00:10:23;;;;;;;8.50;2.00;;;;;;;13.44;100.00;100935.20;105661;1260;75356;-43
2023/05/21 00:12:50;;;;;;;12.70;1.40;;;;;;;13.42;100.00;100932.43;105876;1257;67940;-43
2023/05/21 00:15:17;;;;;;;10.10;1.50;;;;;;;13.40;100.00;100927.62;105708;1259;74924;-42
2023/05/21 00:17:44;;;;;;;21.90;2.40;;;;;;;13.38;100.00;100930.09;105681;1255;61876;-43
2023/05/21 00:20:12;;;;;;;8.80;1.80;;;;;;;13.35;100.00;100926.86;105882;1254;62488;-42
2023/05/21 00:22:41;;;;;;;8.60;1.50;;;;;;;13.32;100.00;100932.48;105816;1257;73285;-43
2023/05/21 00:25:09;;;;;;;5.90;1.50;;;;;;;13.30;100.00;100935.31;105868;1254;67529;-42
2023/05/21 00:27:37;;;;;;;10.10;1.50;;;;;;;13.28;100.00;100932.94;105690;1259;75385;-48
2023/05/21 00:30:05;;;;;;;10.30;1.20;;;;;;;13.25;100.00;100930.20;105739;1254;63094;-46
2023/05/21 00:32:32;;;;;;;5.70;1.80;;;;;;;13.21;100.00;100928.88;105386;1261;63080;-43
2023/05/21 00:35:00;;;;;;;3.60;1.50;;;;;;;13.20;100.00;100934.81;105848;1256;73802;-45
2023/05/21 00:37:31;;;;;;;7.30;1.80;;;;;;;13.18;100.00;100937.80;105640;1260;67169;-42
2023/05/21 00:40:04;;;;;;;2.80;1.50;;;;;;;13.14;100.00;100935.45;105700;1254;74511;-41
2023/05/21 00:42:31;;;;;;;3.00;1.50;;;;;;;13.13;100.00;100943.98;105826;1257;63310;-42
2023/05/21 00:44:58;;;;;;;10.90;1.60;;;;;;;13.11;100.00;100940.89;105836;1254;63116;-42
2023/05/21 00:47:28;;;;;;;4.00;1.40;;;;;;;13.10;100.00;100938.33;105888;1254;74731;-42
2023/05/21 00:49:55;;;;;;;4.30;1.20;;;;;;;13.08;100.00;100934.21;105723;1254;68346;-42
2023/05/21 00:52:25;;;;;;;7.00;1.20;;;;;;;13.06;100.00;100933.90;105658;1259;74428;-43
2023/05/21 00:54:53;;;;;;;5.20;1.30;;;;;;;13.05;100.00;100935.67;105737;1261;62179;-42
2023/05/21 00:57:21;;;;;;;8.70;1.40;;;;;;;13.03;100.00;100935.89;105651;1257;63170;-42
2023/05/21 00:59:50;;;;;;;10.10;1.40;;;;;;;13.01;100.00;100930.20;105646;1259;75432;-42
2023/05/21 01:02:17;;;;;;;6.70;1.70;;;;;;;12.98;100.00;100929.04;105725;1257;68450;-42
2023/05/21 01:04:44;;;;;;;7.00;1.40;;;;;;;12.95;100.00;100925.98;105687;1253;74143;-43
2023/05/21 01:07:13;;;;;;;4.50;1.80;;;;;;;12.92;100.00;100924.33;105676;1253;60930;-42
2023/05/21 01:09:40;;;;;;;7.70;1.20;;;;;;;12.89;100.00;100924.73;105723;1257;63170;-42
2023/05/21 01:12:08;;;;;;;4.60;1.90;;;;;;;12.86;100.00;100922.55;105715;1257;75761;-42
2023/05/21 01:14:36;;;;;;;3.80;1.40;;;;;;;12.82;100.00;100923.83;105680;1257;67197;-42
2023/05/21 01:17:05;;;;;;;4.40;1.30;;;;;;;12.79;100.00;100923.72;105905;1254;75987;-43
2023/05/21 01:19:34;;;;;;;7.00;1.50;;;;;;;12.76;100.00;100920.48;105898;1257;62133;-43
2023/05/21 01:22:06;;;;;;;3.60;1.40;;;;;;;12.74;100.00;100912.73;105706;1260;61766;-43
2023/05/21 01:24:34;;;;;;;2.60;1.40;;;;;;;12.72;100.00;100916.59;105753;1254;75854;-41
2023/05/21 01:27:02;;;;;;;14.60;1.70;;;;;;;12.69;100.00;100917.16;105848;1253;68300;-46
2023/05/21 01:29:29;;;;;;;11.60;1.60;;;;;;;12.67;100.00;100915.66;105723;1254;74370;-45
2023/05/21 01:32:12;;;;;;;7.10;1.20;;;;;;;12.64;100.00;100916.39;105542;1258;61849;-42
2023/05/21 01:34:45;;;;;;;4.90;1.70;;;;;;;12.61;100.00;100915.91;105664;1253;63263;-44
2023/05/21 01:37:24;;;;;;;5.90;2.10;;;;;;;12.59;100.00;100913.02;105680;1261;75685;-43
2023/05/21 01:39:58;;;;;;;5.30;1.20;;;;;;;12.56;100.00;100917.25;105851;1257;67237;-42
2023/05/21 01:42:25;;;;;;;5.10;1.40;;;;;;;12.54;100.00;100920.75;105842;1254;74523;-42
2023/05/21 01:44:54;;;;;;;3.70;1.10;;;;;;;12.53;100.00;100924.23;105694;1254;63177;-42
2023/05/21 01:47:22;;;;;;;8.70;1.80;;;;;;;12.53;100.00;100920.26;105890;1257;62582;-42
2023/05/21 01:49:51;;;;;;;9.20;1.40;;;;;;;12.50;100.00;100918.21;105686;1259;75775;-42
2023/05/21 01:52:18;;;;;;;7.90;1.40;;;;;;;12.50;100.00;100922.54;105685;1253;67510;-43
2023/05/21 01:54:46;;;;;;;6.80;1.30;;;;;;;12.50;100.00;100918.55;105721;1259;75346;-43
2023/05/21 01:57:13;;;;;;;3.50;1.10;;;;;;;12.52;100.00;100921.82;105676;1257;62779;-43
2023/05/21 01:59:40;;;;;;;4.50;1.10;;;;;;;12.54;100.00;100920.77;105681;1268;62098;-43
2023/05/21 02:02:07;;;;;;;10.20;1.30;;;;;;;12.54;100.00;100916.07;105665;1255;75663;-43
2023/05/21 02:04:34;;;;;;;7.40;1.50;;;;;;;12.56;100.00;100914.30;105684;1259;67728;-42
2023/05/21 02:07:01;;;;;;;6.40;1.50;;;;;;;12.57;100.00;100911.17;105666;1255;75296;-43
2023/05/21 02:09:29;;;;;;;5.00;1.20;;;;;;;12.58;100.00;100910.27;105673;1260;61875;-43
2023/05/21 02:11:57;;;;;;;5.80;1.30;;;;;;;12.57;100.00;100908.21;105681;1253;63286;-43
2023/05/21 02:14:24;;;;;;;4.20;1.40;;;;;;;12.56;100.00;100907.20;105697;1257;76375;-43
2023/05/21 02:16:51;;;;;;;5.30;1.70;;;;;;;12.54;100.00;100906.21;105665;1254;66712;-43
2023/05/21 02:19:18;;;;;;;7.60;1.30;;;;;;;12.51;100.00;100912.83;105667;1258;74853;-42
2023/05/21 02:21:45;;;;;;;4.90;1.20;;;;;;;12.48;100.00;100915.48;105633;1260;63040;-43
2023/05/21 02:24:12;;;;;;;4.10;1.30;;;;;;;12.43;100.00;100914.03;105655;1258;61136;-43
2023/05/21 02:26:40;;;;;;;1.80;1.50;;;;;;;12.39;100.00;100914.62;105729;1256;76278;-43
2023/05/21 02:29:08;;;;;;;5.10;1.10;;;;;;;12.35;100.00;100910.53;105726;1257;67562;-43
2023/05/21 02:31:35;;;;;;;4.40;1.40;;;;;;;12.32;100.00;100912.33;105667;1258;74431;-43
2023/05/21 02:34:03;;;;;;;7.40;1.50;;;;;;;12.28;100.00;100911.00;105771;1253;61491;-42
2023/05/21 02:36:32;;;;;;;6.80;1.60;;;;;;;12.26;100.00;100905.16;105720;1257;62031;-43
2023/05/21 02:39:00;;;;;;;3.50;1.40;;;;;;;12.24;100.00;100904.15;105667;1256;76273;-43
2023/05/21 02:41:28;;;;;;;6.50;1.20;;;;;;;12.23;100.00;100905.21;105687;1254;66300;-43
2023/05/21 02:43:55;;;;;;;5.80;1.30;;;;;;;12.21;100.00;100910.42;105674;1259;74845;-43
2023/05/21 02:46:22;;;;;;;5.10;1.20;;;;;;;12.21;100.00;100908.36;105649;1254;63423;-42
2023/05/21 02:48:50;;;;;;;3.40;0.90;;;;;;;12.23;100.00;100914.73;105731;1257;60763;-43
2023/05/21 02:51:18;;;;;;;4.10;1.30;;;;;;;12.24;100.00;100917.30;105673;1254;76204;-43
2023/05/21 02:53:45;;;;;;;3.80;1.40;;;;;;;12.24;100.00;100918.52;105730;1254;68556;-43
2023/05/21 02:56:12;;;;;;;6.40;1.10;;;;;;;12.25;100.00;100919.72;105663;1260;74481;-43
2023/05/21 02:58:40;;;;;;;4.40;1.20;;;;;;;12.24;100.00;100920.06;105686;1254;64850;-46
2023/05/21 03:01:07;;;;;;;3.90;1.50;;;;;;;12.24;100.00;100924.91;105570;1254;62881;-42
2023/05/21 03:03:35;;;;;;;3.60;1.70;;;;;;;12.25;100.00;100919.71;105587;1253;75325;-46
2023/05/21 03:06:03;;;;;;;7.60;2.10;;;;;;;12.26;100.00;100923.16;105747;1254;66624;-46
2023/05/21 03:08:30;;;;;;;5.30;1.30;;;;;;;12.26;100.00;100923.34;105752;1254;75134;-42
2023/05/21 03:10:58;;;;;;;7.00;1.60;;;;;;;12.28;100.00;100925.55;105657;1260;61887;-43
2023/05/21 03:13:25;;;;;;;6.20;1.50;;;;;;;12.30;100.00;100926.04;105699;1255;63057;-43
2023/05/21 03:15:56;;;;;;;9.80;1.70;;;;;;;12.31;100.00;100934.33;105704;1259;75211;-43
2023/05/21 03:18:24;;;;;;;5.40;1.60;;;;;;;12.31;100.00;100933.96;105657;1255;67392;-42
2023/05/21 03:20:51;;;;;;;4.40;1.70;;;;;;;12.32;100.00;100932.20;105685;1257;75415;-43
2023/05/21 03:23:19;;;;;;;2.20;1.50;;;;;;;12.33;100.00;100933.92;105745;1254;63047;-43
2023/05/21 03:25:47;;;;;;;1.60;1.40;;;;;;;12.35;100.00;100932.16;105699;1259;62043;-43
2023/05/21 03:28:16;;;;;;;12.60;1.60;;;;;;;12.34;100.00;100932.18;105670;1260;76249;-43
2023/05/21 03:30:48;;;;;;;3.90;1.60;;;;;;;12.34;100.00;100927.50;105695;1256;67831;-42
2023/05/21 03:33:33;;;;;;;1.50;1.10;;;;;;;12.35;100.00;100926.96;105621;1258;75351;-41
2023/05/21 03:36:07;;;;;;;6.60;1.40;;;;;;;12.34;100.00;100926.65;105639;1254;61526;-41
2023/05/21 03:38:35;;;;;;;9.00;1.40;;;;;;;12.32;100.00;100927.38;105697;1257;61553;-41
2023/05/21 03:41:04;;;;;;;4.00;1.30;;;;;;;12.28;100.00;100923.83;105659;1257;76242;-44
2023/05/21 03:43:31;;;;;;;3.10;1.50;;;;;;;12.25;100.00;100921.97;105678;1254;67086;-43
2023/05/21 03:45:59;;;;;;;8.90;1.10;;;;;;;12.22;100.00;100918.20;105682;1254;73977;-42
2023/05/21 03:48:38;;;;;;;8.40;1.80;;;;;;;12.17;100.00;100921.41;105702;1254;64762;-43
2023/05/21 03:51:06;;;;;;;5.90;1.10;;;;;;;12.13;100.00;100923.04;105640;1254;63277;-43
2023/05/21 03:53:34;;;;;;;6.30;1.40;;;;;;;12.10;100.00;100926.55;105682;1253;75938;-43
2023/05/21 03:56:01;;;;;;;3.40;1.40;;;;;;;12.06;100.00;100927.48;105568;1259;66585;-43
2023/05/21 03:58:29;;;;;;;12.30;1.60;;;;;;;12.04;100.00;100931.14;105681;1259;75116;-43
2023/05/21 04:00:57;;;;;;;8.50;1.20;;;;;;;12.02;100.00;100937.41;105704;1254;63848;-41
2023/05/21 04:03:25;;;;;;;2.10;1.00;;;;;;;12.03;100.00;100942.93;105696;1254;62931;-42
2023/05/21 04:05:53;;;;;;;3.10;1.00;;;;;;;12.03;100.00;100938.26;105650;1254;75236;-42
2023/05/21 04:08:21;;;;;;;3.70;1.00;;;;;;;12.03;100.00;100934.80;105690;1254;68064;-42
2023/05/21 04:10:48;;;;;;;5.10;1.50;;;;;;;12.04;100.00;100931.50;105632;1259;75462;-43
2023/05/21 04:13:16;;;;;;;4.70;1.30;;;;;;;12.06;100.00;100926.27;105651;1254;62170;-43
2023/05/21 04:15:45;;;;;;;7.00;1.00;;;;;;;12.06;100.00;100924.19;105542;1259;62762;-44
2023/05/21 04:18:15;;;;;;;6.20;1.00;;;;;;;12.09;100.00;100927.79;105660;1253;75498;-46
2023/05/21 04:20:42;;;;;;;4.00;0.90;;;;;;;12.13;100.00;100926.34;105447;1259;66892;-43
2023/05/21 04:23:10;;;;;;;13.30;1.40;;;;;;;12.15;100.00;100922.66;105756;1254;74796;-46
2023/05/21 04:25:37;;;;;;;3.80;1.10;;;;;;;12.19;100.00;100920.68;105704;1257;62518;-44
2023/05/21 04:28:05;;;;;;;4.20;1.40;;;;;;;12.23;100.00;100923.73;105639;1254;62845;-42
2023/05/21 04:30:36;;;;;;;2.80;1.10;;;;;;;12.28;100.00;100923.66;105684;1258;76236;-42
2023/05/21 04:33:03;;;;;;;1.20;1.10;;;;;;;12.32;100.00;100928.92;105644;1253;67966;-42
2023/05/21 04:35:34;;;;;;;6.70;1.60;;;;;;;12.39;100.00;100930.71;105685;1255;73269;-42
2023/05/21 04:38:04;;;;;;;2.70;1.50;;;;;;;12.45;100.00;100933.02;105702;1254;61153;-42
2023/05/21 04:40:31;;;;;;;2.20;1.10;;;;;;;12.51;100.00;100936.55;105721;1258;61998;-42
2023/05/21 04:43:03;;;;;;;6.40;1.60;;;;;;;12.57;100.00;100941.12;105651;1254;75548;-42
2023/05/21 04:45:31;;;;;;;3.00;1.40;;;;;;;12.59;100.00;100941.41;105737;1256;67438;-43
2023/05/21 04:47:59;;;;;;;4.40;1.50;;;;;;;12.66;100.00;100938.16;105701;1254;75321;-43
2023/05/21 04:50:29;;;;;;;3.50;1.70;;;;;;;12.73;100.00;100941.14;105701;1254;64614;-42
2023/05/21 04:52:58;;;;;;;5.40;1.20;;;;;;;12.81;100.00;100937.20;105639;1257;61997;-42
2023/05/21 04:55:26;;;;;;;1.70;1.30;;;;;;;12.90;100.00;100931.81;105665;1259;76315;-43
2023/05/21 04:57:53;;;;;;;4.20;1.50;;;;;;;12.95;100.00;100934.99;105682;1252;68504;-42
2023/05/21 05:00:21;;;;;;;4.80;1.40;;;;;;;13.01;100.00;100935.41;105646;1258;75185;-42
2023/05/21 05:02:48;;;;;;;1.30;1.20;;;;;;;13.05;100.00;100938.95;105630;1257;62149;-42
2023/05/21 05:05:15;;;;;;;3.00;1.30;;;;;;;13.10;100.00;100945.09;105659;1260;61557;-42
2023/05/21 05:07:42;;;;;;;9.30;1.60;;;;;;;13.11;100.00;100951.98;105667;1253;76625;-42
2023/05/21 05:10:09;;;;;;;2.50;1.20;;;;;;;13.15;100.00;100958.49;105656;1258;68108;-42
2023/05/21 05:12:36;;;;;;;5.40;1.50;;;;;;;13.20;100.00;100960.45;105668;1259;73034;-42
2023/05/21 05:15:04;;;;;;;10.50;1.30;;;;;;;13.33;100.00;100961.41;105700;1259;62642;-42
2023/05/21 05:17:33;;;;;;;2.10;1.20;;;;;;;13.44;100.00;100963.97;105693;1255;61683;-42
2023/05/21 05:20:00;;;;;;;5.70;2.00;;;;;;;13.55;100.00;100968.23;105702;1253;75605;-42
2023/05/21 05:22:28;;;;;;;11.90;1.60;;;;;;;13.62;100.00;100974.15;105671;1253;66481;-43
2023/05/21 05:24:55;;;;;;;6.60;1.40;;;;;;;13.64;100.00;100981.20;105659;1258;75146;-42
2023/05/21 05:27:22;;;;;;;5.90;1.40;;;;;;;13.65;100.00;100983.27;105665;1254;63405;-43
2023/05/21 05:29:50;;;;;;;2.20;1.30;;;;;;;13.64;100.00;100986.06;105663;1255;60999;-47
2023/05/21 05:32:17;;;;;;;4.60;1.20;;;;;;;13.61;100.00;100989.06;105640;1254;75463;-45
2023/05/21 05:34:45;;;;;;;6.10;1.60;;;;;;;13.59;100.00;100991.02;105464;1253;68516;-42
2023/05/21 05:37:12;;;;;;;4.20;1.60;;;;;;;13.57;100.00;100989.00;105592;1260;75174;-43
2023/05/21 05:39:39;;;;;;;9.30;1.80;;;;;;;13.54;100.00;100984.06;105704;1259;61856;-43
2023/05/21 05:42:07;;;;;;;6.30;1.70;;;;;;;13.55;100.00;100975.52;105627;1253;63270;-43
2023/05/21 05:44:34;;;;;;;6.10;1.70;;;;;;;13.56;100.00;100970.65;105669;1253;75339;-43
2023/05/21 05:47:01;;;;;;;1.90;1.40;;;;;;;13.54;100.00;100975.03;105691;1257;67646;-43
2023/05/21 05:49:28;;;;;;;6.90;1.60;;;;;;;13.56;100.00;100976.19;105675;1257;75187;-43
2023/05/21 05:51:55;;;;;;;10.70;1.60;;;;;;;13.63;100.00;100981.05;105661;1253;61516;-43
2023/05/21 05:54:22;;;;;;;6.80;2.30;;;;;;;13.76;100.00;100975.20;105704;1253;63120;-43
2023/05/21 05:56:50;;;;;;;3.40;1.90;;;;;;;13.88;100.00;100975.28;105659;1253;76362;-43
2023/05/21 05:59:17;;;;;;;3.60;1.70;;;;;;;13.95;100.00;100979.95;105711;1260;67102;-43
2023/05/21 06:01:46;;;;;;;7.40;1.80;;;;;;;14.00;100.00;100978.45;105700;1254;75479;-43
2023/05/21 06:04:15;;;;;;;9.80;1.80;;;;;;;14.09;100.00;100975.99;105602;1254;63004;-43
2023/05/21 06:06:42;;;;;;;5.00;1.70;;;;;;;14.24;100.00;100972.66;105671;1256;61450;-43
2023/05/21 06:09:09;;;;;;;3.80;2.10;;;;;;;14.41;100.00;100972.23;105702;1254;76922;-43
2023/05/21 06:11:37;;;;;;;8.40;3.00;;;;;;;14.62;100.00;100973.26;105611;1259;66768;-43
2023/05/21 06:14:04;;;;;;;6.90;3.20;;;;;;;14.92;100.00;100972.96;105703;1257;75636;-43
2023/05/21 06:16:32;;;;;;;4.20;1.80;;;;;;;15.28;100.00;100964.11;105694;1257;61739;-43
2023/05/21 06:19:00;;;;;;;9.40;2.30;;;;;;;15.56;100.00;100967.63;105748;1253;62788;-42
2023/05/21 06:21:27;;;;;;;9.60;1.90;;;;;;;15.77;100.00;100976.89;105659;1252;75151;-42
2023/05/21 06:23:54;;;;;;;5.40;2.30;;;;;;;15.98;100.00;100984.95;105715;1253;67143;-43
2023/05/21 06:26:22;;;;;;;4.10;1.90;;;;;;;16.19;100.00;100990.89;105675;1253;75374;-42
2023/05/21 06:28:49;;;;;;;4.30;2.20;;;;;;;16.37;100.00;100992.55;105724;1253;62879;-42
2023/05/21 06:31:17;;;;;;;6.50;2.00;;;;;;;16.48;100.00;100994.41;105671;1254;63166;-42
2023/05/21 06:33:48;;;;;;;19.80;2.10;;;;;;;16.60;100.00;101012.65;105706;1258;74889;-43
2023/05/21 06:36:15;;;;;;;8.30;2.70;;;;;;;16.73;100.00;100997.92;105695;1253;67288;-43
2023/05/21 06:38:44;;;;;;;2.40;2.00;;;;;;;16.83;100.00;100992.33;105724;1254;74600;-42
2023/05/21 06:41:11;;;;;;;10.10;2.10;;;;;;;16.92;100.00;100990.60;105736;1253;61431;-43
2023/05/21 06:43:51;;;;;;;8.70;2.10;;;;;;;17.00;100.00;101011.98;105693;1253;62945;-43
2023/05/21 06:46:57;;;;;;;3.50;2.00;;;;;;;17.17;100.00;101001.39;105526;1258;74896;-42
2023/05/21 06:49:23;;;;;;;3.10;2.00;;;;;;;17.29;100.00;101000.29;105683;1259;67901;-42
2023/05/21 06:51:52;;;;;;;6.30;2.30;;;;;;;17.47;99.43;100994.52;105653;1257;75221;-43
2023/05/21 06:54:20;;;;;;;2.10;1.90;;;;;;;17.62;99.10;101000.58;105696;1253;62523;-43
2023/05/21 06:56:49;;;;;;;9.50;2.70;;;;;;;17.74;91.28;100984.94;105710;1259;62621;-43
2023/05/21 06:59:16;;;;;;;13.10;3.20;;;;;;;17.79;94.97;101008.13;105683;1257;76342;-43
2023/05/21 07:01:43;;;;;;;5.60;2.50;;;;;;;17.92;85.01;100991.54;105666;1253;67906;-43
2023/05/21 07:04:11;;;;;;;5.60;2.90;;;;;;;18.01;83.97;100995.56;105667;1254;74512;-43
2023/05/21 07:06:40;;;;;;;3.50;2.00;;;;;;;18.13;78.91;100983.39;105630;1253;63104;-45
2023/05/21 07:09:07;;;;;;;7.70;2.60;;;;;;;18.10;77.13;100985.98;105543;1254;63318;-43
2023/05/21 07:11:35;;;;;;;7.90;2.40;;;;;;;18.13;84.20;101014.64;105525;1259;76826;-43
2023/05/21 07:14:05;;;;;;;4.30;2.70;;;;;;;18.31;80.95;101005.86;105714;1253;68426;-44
2023/05/21 07:16:33;;;;;;;5.70;2.70;;;;;;;18.52;80.09;101001.83;105684;1254;73708;-42
2023/05/21 07:19:00;;;;;;;8.30;2.90;;;;;;;18.62;74.69;100983.23;105678;1254;61462;-42
2023/05/21 07:21:28;;;;;;;8.30;3.10;;;;;;;18.64;76.96;101003.40;105706;1258;62745;-43
2023/05/21 07:23:55;;;;;;;7.20;2.50;;;;;;;18.59;74.98;100995.60;105724;1254;76014;-43
2023/05/21 07:26:22;;;;;;;3.80;2.80;;;;;;;18.47;72.10;100989.96;105668;1253;67816;-43
2023/05/21 07:28:49;;;;;;;8.90;2.70;;;;;;;18.30;73.97;101005.39;105710;1257;74853;-43
2023/05/21 07:31:16;;;;;;;4.40;2.70;;;;;;;18.25;83.18;101038.25;105667;1252;62179;-42
2023/05/21 07:33:46;;;;;;;9.60;3.00;;;;;;;18.29;74.01;100988.48;105715;1253;60998;-42
2023/05/21 07:36:15;;;;;;;7.20;2.70;;;;;;;18.24;73.05;101005.45;105702;1259;76412;-42
2023/05/21 07:38:43;;;;;;;12.30;3.40;;;;;;;18.28;75.17;101022.39;105735;1256;67126;-42
2023/05/21 07:41:11;;;;;;;6.00;3.10;;;;;;;18.39;77.57;101023.52;105738;1253;74600;-42
2023/05/21 07:43:38;;;;;;;10.60;3.20;;;;;;;18.62;84.32;101038.43;105703;1254;62806;-42
2023/05/21 07:46:05;;;;;;;16.90;3.20;;;;;;;18.89;79.92;101016.66;105676;1253;62091;-43
2023/05/21 07:48:33;;;;;;;7.70;3.60;;;;;;;19.08;72.86;100986.30;105740;1253;74921;-43
2023/05/21 07:51:02;;;;;;;12.30;3.70;;;;;;;19.21;71.13;100986.22;105736;1253;67633;-43
2023/05/21 07:53:31;;;;;;;9.40;3.20;;;;;;;19.35;71.04;100980.67;105742;1257;74960;-43
2023/05/21 07:56:00;;;;;;;9.70;3.40;;;;;;;19.52;70.59;100985.65;105667;1253;61928;-43
2023/05/21 07:58:27;;;;;;;8.60;2.70;;;;;;;19.75;67.87;100965.65;105675;1253;61022;-43
2023/05/21 08:00:56;;;;;;;9.20;3.10;;;;;;;19.98;66.12;100959.65;105739;1253;75596;-43
2023/05/21 08:03:24;;;;;;;5.60;2.60;;;;;;;20.36;63.98;100928.98;105749;1253;66612;-47
2023/05/21 08:05:52;;;;;;;7.70;2.70;;;;;;;20.88;64.38;100950.84;105651;1254;75174;-45
2023/05/21 08:08:22;;;;;;;5.40;2.60;;;;;;;21.47;62.30;100911.09;105578;1253;62906;-48
2023/05/21 08:10:50;;;;;;;5.50;3.00;;;;;;;22.02;58.48;100832.25;105737;1253;62772;-45
2023/05/21 08:13:18;;;;;;;3.00;2.70;;;;;;;22.33;55.99;100789.59;105714;1256;77223;-42
2023/05/21 08:15:46;;;;;;;11.40;2.80;;;;;;;22.43;54.55;100769.28;105614;1253;67018;-42
2023/05/21 08:18:16;;;;;;;6.60;2.80;;;;;;;22.22;54.38;100802.77;105704;1253;75340;-42
2023/05/21 08:20:44;;;;;;;3.70;2.80;;;;;;;21.96;54.28;100816.98;105712;1253;63038;-42
2023/05/21 08:23:11;;;;;;;4.90;2.20;;;;;;;21.68;54.99;100857.62;105675;1259;62787;-43
2023/05/21 08:25:45;;;;;;;6.40;2.60;;;;;;;21.46;54.14;100828.29;105673;1257;76314;-43
2023/05/21 08:28:13;;;;;;;2.90;2.30;;;;;;;21.14;54.22;100849.45;105707;1253;67913;-43
2023/05/21 08:30:40;;;;;;;9.30;3.00;;;;;;;20.85;55.34;100902.45;105697;1254;74566;-43
2023/05/21 08:33:08;;;;;;;6.20;2.40;;;;;;;20.63;56.05;100933.93;105652;1257;61473;-43
2023/05/21 08:35:35;;;;;;;6.40;2.90;;;;;;;20.49;56.11;100943.42;105637;1259;61814;-43
2023/05/21 08:38:23;;;;;;;11.40;3.00;;;;;;;20.33;57.08;100971.02;105677;1257;75885;-43
2023/05/21 09:39:48;;;;;;;4.80;3.00;;;;;;;21.27;54.13;100879.96;102742;1294;601280;-42
2023/05/21 09:42:17;;;;;;;9.30;3.00;;;;;;;21.19;54.29;100882.70;105052;1266;62773;-42
2023/05/21 09:44:44;;;;;;;8.70;2.90;;;;;;;21.19;54.80;100909.86;105308;1265;62083;-43
2023/05/21 09:47:11;;;;;;;9.80;3.00;;;;;;;21.23;54.68;100906.10;105208;1265;74823;-43
2023/05/21 09:49:38;;;;;;;6.50;3.20;;;;;;;21.26;54.60;100895.98;105257;1260;66845;-43
2023/05/21 09:52:05;;;;;;;4.80;2.90;;;;;;;21.18;54.54;100891.69;105275;1257;74992;-45
2023/05/21 09:54:33;;;;;;;4.10;2.80;;;;;;;21.06;54.85;100910.58;105325;1260;226961;-44
2023/05/21 09:57:03;;;;;;;6.70;3.10;;;;;;;21.04;55.00;100921.06;105283;1262;61874;-54
2023/05/21 09:59:40;;;;;;;7.20;3.30;;;;;;;21.05;55.65;100934.48;105546;1256;74904;-42
2023/05/21 10:02:18;;;;;;;8.70;3.30;;;;;;;21.22;56.12;100945.50;105645;1260;66348;-43
2023/05/21 10:05:52;;;;;;;13.60;3.20;;;;;;;21.40;54.67;100885.34;102686;1292;601229;-42
2023/05/21 10:08:21;;;;;;;7.50;3.10;;;;;;;21.46;53.75;100857.81;104761;1274;63257;-43
2023/05/21 10:10:48;;;;;;;6.40;3.30;;;;;;;21.49;53.32;100841.13;105507;1262;62514;-42
2023/05/21 10:13:18;;;;;;;5.60;2.80;;;;;;;21.62;52.44;100802.51;105308;1264;75033;-43
2023/05/21 10:15:47;;;;;;;5.70;3.30;;;;;;;21.56;52.33;100800.67;105547;1262;67870;-43
2023/05/21 10:18:17;;;;;;;55.00;5.00;;;;;;;21.56;53.10;100847.92;105487;1260;75591;-44
2023/05/21 10:20:44;;;;;;;7.30;3.10;;;;;;;21.62;52.72;100827.61;105386;1256;296567;-42
2023/05/21 10:23:11;;;;;;;14.40;3.20;;;;;;;21.61;52.83;100837.27;105529;1257;61211;-44
2023/05/21 10:25:38;;;;;;;6.10;3.40;;;;;;;21.70;52.22;100811.33;105593;1262;73382;-44
2023/05/21 10:28:06;;;;;;;7.20;3.50;;;;;;;21.62;51.50;100783.31;105637;1261;67922;-43
2023/05/21 10:30:33;;;;;;;5.10;3.00;;;;;;;21.47;52.49;100841.92;105780;1256;74100;-44
2023/05/21 10:33:01;;;;;;;6.60;3.30;;;;;;;21.46;52.38;100842.89;105700;1253;61108;-44
2023/05/21 10:35:28;;;;;;;6.10;3.20;;;;;;;21.49;52.62;100853.26;105767;1256;61548;-43
2023/05/21 10:37:56;;;;;;;6.80;3.20;;;;;;;21.54;53.58;100895.95;105715;1254;76027;-49
2023/05/21 10:40:23;;;;;;;7.60;3.40;;;;;;;21.67;54.02;100909.48;105920;1252;67105;-49
2023/05/21 10:42:56;;;;;;;9.50;3.80;;;;;;;21.86;54.10;100907.36;105879;1254;75414;-43
2023/05/21 10:45:52;;;;;;;8.70;3.70;;;;;;;22.09;53.57;100877.69;105929;1253;62017;-43
2023/05/21 10:48:23;;;;;;;14.00;3.90;;;;;;;22.30;53.20;100855.33;105897;1256;61765;-43
2023/05/21 10:51:11;;;;;;;8.50;3.70;;;;;;;22.37;52.26;100816.21;105901;1256;75439;-44
2023/05/21 10:54:00;;;;;;;7.30;3.10;;;;;;;22.32;52.20;100821.10;105918;1253;67178;-43
2023/05/21 10:56:49;;;;;;;7.30;3.20;;;;;;;22.25;51.71;100796.75;105894;1253;74995;-43
2023/05/21 10:59:29;;;;;;;6.60;3.20;;;;;;;22.10;51.89;100819.46;105871;1251;63154;-42
2023/05/21 11:01:56;;;;;;;6.30;3.10;;;;;;;22.00;52.12;100832.05;105897;1256;62488;-42
2023/05/21 11:04:27;;;;;;;7.60;3.00;;;;;;;21.96;52.60;100855.08;105733;1257;75181;-43
2023/05/21 11:06:55;;;;;;;4.00;3.30;;;;;;;21.96;52.77;100855.78;105950;1251;66686;-43
2023/05/21 11:09:22;;;;;;;10.50;3.40;;;;;;;22.03;52.76;100855.56;105880;1259;74133;-49
2023/05/21 11:11:51;;;;;;;6.80;3.50;;;;;;;22.15;52.85;100854.72;105892;1253;62767;-43
2023/05/21 11:14:31;;;;;;;7.40;3.30;;;;;;;22.23;52.81;100852.40;105930;1256;61679;-43
2023/05/21 11:16:59;;;;;;;17.60;9.40;;;;;;;22.26;52.08;100816.04;105973;1252;74577;-45
2023/05/21 11:19:35;;;;;;;13.40;3.90;;;;;;;22.25;51.43;100787.96;105924;1256;67553;-43
2023/05/21 11:22:06;;;;;;;7.80;4.00;;;;;;;22.13;51.54;100795.07;105904;1253;74421;-43
2023/05/21 11:24:37;;;;;;;7.70;3.30;;;;;;;22.04;52.27;100836.38;105988;1256;62624;-43
2023/05/21 11:27:05;;;;;;;5.50;3.20;;;;;;;22.07;52.26;100832.99;105791;1253;62484;-42
2023/05/21 11:29:40;;;;;;;16.80;3.40;;;;;;;22.13;51.72;100800.49;105824;1251;74287;-42
2023/05/21 11:32:08;;;;;;;6.00;3.80;;;;;;;22.20;51.72;100806.92;105827;1253;68545;-43
2023/05/21 11:34:36;;;;;;;9.10;3.10;;;;;;;22.47;51.21;100780.81;105880;1258;75239;-43
2023/05/21 11:37:16;;;;;;;7.40;3.30;;;;;;;22.75;50.25;100722.22;105861;1253;62877;-43
2023/05/21 11:39:44;;;;;;;9.70;3.30;;;;;;;23.02;50.89;100765.72;105887;1257;62837;-43
2023/05/21 11:42:11;;;;;;;8.70;3.30;;;;;;;23.50;49.20;100655.09;105910;1251;74632;-45
2023/05/21 11:44:45;;;;;;;8.50;3.60;;;;;;;23.79;48.66;100616.31;105866;1253;66553;-42
2023/05/21 11:47:15;;;;;;;9.60;4.30;;;;;;;24.05;47.96;100564.55;105868;1256;74455;-43
2023/05/21 11:49:42;;;;;;;7.90;6.00;;;;;;;24.25;48.17;100592.91;105932;1252;60915;-42
2023/05/21 11:52:09;;;;;;;7.50;3.50;;;;;;;24.43;47.99;100581.39;105879;1253;62570;-42
2023/05/21 11:54:47;;;;;;;4.70;3.00;;;;;;;24.52;47.12;100516.13;105890;1258;75868;-42
2023/05/21 11:57:16;;;;;;;6.90;3.00;;;;;;;24.41;46.64;100484.17;105885;1253;67487;-43
2023/05/21 11:59:52;;;;;;;7.70;3.10;;;;;;;24.23;46.97;100537.52;105920;1253;74377;-43
2023/05/21 12:02:20;;;;;;;3.50;2.70;;;;;;;24.00;47.46;100597.86;105859;1258;61750;-43
2023/05/21 12:04:48;;;;;;;8.00;3.30;;;;;;;23.83;47.16;100587.10;105916;1259;62075;-44
2023/05/21 12:07:18;;;;;;;3.70;3.00;;;;;;;23.62;47.57;100623.27;105847;1256;75112;-43
2023/05/21 12:09:46;;;;;;;15.60;3.90;;;;;;;23.54;48.17;100677.73;105860;1251;67254;-43
2023/05/21 12:12:15;;;;;;;7.00;3.30;;;;;;;23.67;48.21;100669.48;105838;1256;75393;-43
2023/05/21 12:14:46;;;;;;;6.40;4.50;;;;;;;23.87;48.64;100698.17;105872;1259;62804;-43
2023/05/21 12:17:20;;;;;;;6.50;3.70;;;;;;;24.17;48.58;100677.42;105916;1253;62900;-43
2023/05/21 12:19:49;;;;;;;7.50;3.50;;;;;;;24.48;47.07;100534.25;105892;1253;74405;-44